createdAt,value
2019-03-24T00:01:54.469Z,102027.26
2019-03-24T00:04:27.516Z,102029.03
2019-03-24T00:07:00.195Z,102032.62
2019-03-24T00:09:32.909Z,102030.84
2019-03-24T00:12:05.834Z,102023.37
2019-03-24T00:14:38.565Z,102026.02
2019-03-24T00:17:11.263Z,102015.45
2019-03-24T00:19:43.931Z,102020.73
2019-03-24T00:22:16.624Z,102018.14
2019-03-24T00:24:49.471Z,102019.01
2019-03-24T00:27:24.638Z,102015.48
2019-03-24T00:29:59.056Z,102020.31
2019-03-24T00:32:31.742Z,102012.84
2019-03-24T00:35:04.410Z,102012.35
2019-03-24T00:37:37.112Z,102015.88
2019-03-24T00:40:10.070Z,102014.99
2019-03-24T00:42:43.126Z,102019.39
2019-03-24T00:45:16.030Z,102019.80
2019-03-24T00:47:49.552Z,102018.47
2019-03-24T00:50:22.330Z,102016.71
2019-03-24T00:52:55.038Z,102015.38
2019-03-24T00:55:27.753Z,102019.77
2019-03-24T00:58:00.479Z,102020.66
2019-03-24T01:00:48.234Z,102020.64
2019-03-24T01:03:21.213Z,102015.38
2019-03-24T01:05:53.950Z,102020.66
2019-03-24T01:08:26.644Z,102016.67
2019-03-24T01:10:59.271Z,102019.75
2019-03-24T01:13:31.911Z,102024.62
2019-03-24T01:16:04.644Z,102020.20
2019-03-24T01:18:37.289Z,102027.71
2019-03-24T01:21:10.026Z,102021.98
2019-03-24T01:23:42.762Z,102026.84
2019-03-24T01:26:15.398Z,102022.41
2019-03-24T01:28:48.087Z,102026.84
2019-03-24T01:31:20.836Z,102021.11
2019-03-24T01:33:53.553Z,102025.50
2019-03-24T01:36:26.237Z,102021.09
2019-03-24T01:38:58.969Z,102020.64
2019-03-24T01:41:31.627Z,102017.09
2019-03-24T01:44:04.419Z,102016.20
2019-03-24T01:46:37.111Z,102018.43
2019-03-24T01:49:09.833Z,102012.73
2019-03-24T01:51:42.517Z,102007.84
2019-03-24T01:54:15.400Z,102000.87
2019-03-24T01:56:48.086Z,102005.73
2019-03-24T01:59:20.739Z,101999.04
2019-03-24T02:01:53.430Z,101998.13
2019-03-24T02:04:26.155Z,101997.23
2019-03-24T02:06:58.801Z,101991.95
2019-03-24T02:09:31.473Z,101995.45
2019-03-24T02:12:04.357Z,101993.64
2019-03-24T02:14:37.017Z,101997.17
2019-03-24T02:17:09.689Z,101991.00
2019-03-24T02:19:42.309Z,101981.77
2019-03-24T02:22:14.982Z,101984.81
2019-03-24T02:24:47.655Z,101979.09
2019-03-24T02:27:20.393Z,101982.16
2019-03-24T02:29:52.989Z,101980.84
2019-03-24T02:32:25.670Z,101985.70
2019-03-24T02:34:58.292Z,101984.36
2019-03-24T02:37:31.057Z,101983.92
2019-03-24T02:40:03.777Z,101990.96
2019-03-24T02:42:36.544Z,101989.15
2019-03-24T02:45:09.684Z,101986.48
2019-03-24T02:47:42.464Z,101988.69
2019-03-24T02:50:15.409Z,101989.99
2019-03-24T02:52:48.102Z,101989.11
2019-03-24T02:55:20.793Z,101988.20
2019-03-24T02:57:54.869Z,101983.83
2019-03-24T03:00:27.682Z,101977.64
2019-03-24T03:03:00.405Z,101978.53
2019-03-24T03:05:33.110Z,101982.90
2019-03-24T03:08:05.844Z,101982.44
2019-03-24T03:10:38.521Z,101975.39
2019-03-24T03:13:11.240Z,101973.16
2019-03-24T03:15:43.924Z,101970.92
2019-03-24T03:18:16.626Z,101969.59
2019-03-24T03:20:49.255Z,101966.09
2019-03-24T03:23:21.953Z,101966.95
2019-03-24T03:25:54.557Z,101967.76
2019-03-24T03:28:27.255Z,101963.36
2019-03-24T03:31:00.041Z,101963.75
2019-03-24T03:33:33.331Z,101964.17
2019-03-24T03:36:06.008Z,101962.36
2019-03-24T03:38:38.636Z,101962.31
2019-03-24T03:41:11.343Z,101969.31
2019-03-24T03:43:44.046Z,101967.51
2019-03-24T03:46:16.797Z,101970.10
2019-03-24T03:48:49.387Z,101965.66
2019-03-24T03:51:22.026Z,101969.47
2019-03-24T03:53:54.748Z,101968.05
2019-03-24T03:56:27.441Z,101962.68
2019-03-24T03:59:00.081Z,101965.28
2019-03-24T04:01:32.797Z,101966.50
2019-03-24T04:04:05.477Z,101968.18
2019-03-24T04:06:38.118Z,101965.47
2019-03-24T04:09:10.756Z,101958.29
2019-03-24T04:11:43.397Z,101952.89
2019-03-24T04:14:16.046Z,101956.27
2019-03-24T04:16:48.685Z,101955.24
2019-03-24T04:19:21.519Z,101960.75
2019-03-24T04:21:54.117Z,101953.62
2019-03-24T04:24:26.802Z,101949.02
2019-03-24T04:26:59.437Z,101947.27
2019-03-24T04:29:32.046Z,101943.58
2019-03-24T04:32:04.693Z,101937.12
2019-03-24T04:34:37.303Z,101947.16
2019-03-24T04:37:10.000Z,101948.08
2019-03-24T04:39:42.671Z,101945.58
2019-03-24T04:42:15.373Z,101944.00
2019-03-24T04:44:48.140Z,101941.63
2019-03-24T04:47:20.798Z,101941.34
2019-03-24T04:49:53.520Z,101944.69
2019-03-24T04:52:26.236Z,101946.20
2019-03-24T04:54:58.863Z,101945.17
2019-03-24T04:57:33.531Z,101940.88
2019-03-24T05:00:07.528Z,101942.89
2019-03-24T05:02:40.365Z,101944.97
2019-03-24T05:05:13.480Z,101942.08
2019-03-24T05:07:46.272Z,101939.34
2019-03-24T05:10:29.766Z,101940.53
2019-03-24T05:13:02.386Z,101940.62
2019-03-24T05:15:35.054Z,101941.56
2019-03-24T05:18:07.762Z,101947.11
2019-03-24T05:20:40.632Z,101940.29
2019-03-24T05:23:13.396Z,101940.51
2019-03-24T05:25:46.254Z,101932.47
2019-03-24T05:28:18.948Z,101931.31
2019-03-24T05:30:54.251Z,101923.20
2019-03-24T05:33:28.466Z,101924.42
2019-03-24T05:36:01.197Z,101928.83
2019-03-24T05:38:34.112Z,101927.22
2019-03-24T05:41:07.122Z,101927.64
2019-03-24T05:43:39.813Z,101939.19
2019-03-24T05:46:12.421Z,101936.19
2019-03-24T05:48:45.121Z,101935.88
2019-03-24T05:51:17.808Z,101929.95
2019-03-24T05:53:50.469Z,101934.86
2019-03-24T05:56:23.195Z,101934.05
2019-03-24T05:58:55.908Z,101936.25
2019-03-24T06:01:28.511Z,101937.67
2019-03-24T06:04:01.444Z,101933.35
2019-03-24T06:06:34.128Z,101938.26
2019-03-24T06:09:08.744Z,101934.86
2019-03-24T06:11:41.464Z,101935.44
2019-03-24T06:14:14.162Z,101928.98
2019-03-24T06:16:46.824Z,101941.38
2019-03-24T06:19:20.328Z,101937.97
2019-03-24T06:21:53.178Z,101932.79
2019-03-24T06:24:26.256Z,101928.53
2019-03-24T06:26:59.029Z,101930.02
2019-03-24T06:29:33.641Z,101923.55
2019-03-24T06:32:06.503Z,101924.11
2019-03-24T06:34:39.245Z,101926.48
2019-03-24T06:37:12.001Z,101931.45
2019-03-24T06:39:44.727Z,101922.92
2019-03-24T06:42:17.608Z,101920.05
2019-03-24T06:44:50.570Z,101918.17
2019-03-24T06:47:23.930Z,101921.76
2019-03-24T06:49:58.252Z,101913.54
2019-03-24T06:52:34.464Z,101920.66
2019-03-24T06:55:07.727Z,101916.05
2019-03-24T06:57:44.763Z,101917.11
2019-03-24T07:00:18.103Z,101921.14
2019-03-24T07:02:50.875Z,101923.89
2019-03-24T07:05:24.166Z,101930.47
2019-03-24T07:07:58.526Z,101924.91
2019-03-24T07:10:31.402Z,101921.77
2019-03-24T07:13:05.888Z,101927.02
2019-03-24T07:15:40.043Z,101913.09
2019-03-24T07:18:12.963Z,101910.75
2019-03-24T07:20:45.892Z,101906.72
2019-03-24T07:23:18.659Z,101896.16
2019-03-24T07:25:53.021Z,101896.70
2019-03-24T07:28:26.191Z,101894.99
2019-03-24T07:31:05.500Z,101890.69
2019-03-24T07:33:41.613Z,101888.53
2019-03-24T07:36:14.715Z,101883.95
2019-03-24T07:38:47.939Z,101884.00
2019-03-24T07:41:21.151Z,101885.81
2019-03-24T07:43:54.403Z,101885.88
2019-03-24T07:46:32.191Z,101885.53
2019-03-24T07:49:05.319Z,101886.91
2019-03-24T07:51:47.295Z,101886.09
2019-03-24T07:54:35.114Z,101884.39
2019-03-24T07:57:07.946Z,101882.77
2019-03-24T07:59:41.163Z,101881.94
2019-03-24T08:02:14.057Z,101881.98
2019-03-24T08:04:46.840Z,101875.50
2019-03-24T08:07:20.223Z,101877.83
2019-03-24T08:09:53.693Z,101874.34
2019-03-24T08:12:26.597Z,101867.37
2019-03-24T08:15:00.083Z,101869.52
2019-03-24T08:17:33.455Z,101859.89
2019-03-24T08:20:08.152Z,101856.41
2019-03-24T08:22:41.064Z,101849.42
2019-03-24T08:25:14.518Z,101851.27
2019-03-24T08:27:47.523Z,101845.58
2019-03-24T08:30:37.607Z,101841.25
2019-03-24T08:33:10.679Z,101837.87
2019-03-24T08:35:43.891Z,101842.30
2019-03-24T08:38:17.053Z,101839.19
2019-03-24T08:40:50.144Z,101836.54
2019-03-24T08:43:24.249Z,101837.00
2019-03-24T08:45:57.151Z,101833.45
2019-03-24T08:48:40.494Z,101828.16
2019-03-24T08:51:07.198Z,101827.66
2019-03-24T08:53:40.242Z,101826.84
2019-03-24T08:56:13.548Z,101821.55
2019-03-24T08:58:46.354Z,101820.66
2019-03-24T09:01:24.227Z,101815.83
2019-03-24T09:03:57.141Z,101807.88
2019-03-24T09:06:30.095Z,101803.92
2019-03-24T09:09:03.372Z,101794.61
2019-03-24T09:11:36.715Z,101790.59
2019-03-24T09:14:09.903Z,101787.56
2019-03-24T09:16:43.374Z,101793.31
2019-03-24T09:34:55.077Z,101775.16
2019-03-24T09:37:28.105Z,101767.67
2019-03-24T09:40:04.694Z,101773.05
2019-03-24T09:42:38.308Z,101766.05
2019-03-24T09:45:11.532Z,101769.55
2019-03-24T09:47:45.407Z,101765.75
2019-03-24T09:50:18.157Z,101752.63
2019-03-24T09:52:50.878Z,101753.14
2019-03-24T09:55:23.787Z,101752.09
2019-03-24T09:57:56.713Z,101745.74
2019-03-24T10:00:29.446Z,101747.30
2019-03-24T10:03:02.343Z,101742.37
2019-03-24T10:05:35.155Z,101743.89
2019-03-24T10:08:09.162Z,101734.42
2019-03-24T10:10:42.142Z,101735.89
2019-03-24T10:13:15.013Z,101734.58
2019-03-24T10:15:47.735Z,101727.14
2019-03-24T10:18:20.555Z,101720.69
2019-03-24T10:20:53.313Z,101719.56
2019-03-24T10:23:26.176Z,101707.94
2019-03-24T10:25:58.936Z,101699.84
2019-03-24T10:28:31.794Z,101698.50
2019-03-24T10:31:04.506Z,101699.02
2019-03-24T10:33:41.388Z,101699.06
2019-03-24T10:36:14.274Z,101696.46
2019-03-24T10:38:47.170Z,101693.97
2019-03-24T10:41:20.041Z,101696.76
2019-03-24T10:43:53.010Z,101696.62
2019-03-24T10:46:25.723Z,101687.54
2019-03-24T10:48:58.571Z,101677.70
2019-03-24T10:51:31.385Z,101674.89
2019-03-24T10:54:04.253Z,101670.11
2019-03-24T10:56:37.906Z,101666.50
2019-03-24T10:59:10.835Z,101662.86
2019-03-24T11:01:43.452Z,101654.48
2019-03-24T11:04:16.214Z,101650.55
2019-03-24T11:06:48.963Z,101648.83
2019-03-24T11:09:24.398Z,101653.23
2019-03-24T11:11:57.201Z,101642.72
2019-03-24T11:14:31.999Z,101636.91
2019-03-24T11:17:07.800Z,101638.36
2019-03-24T11:19:40.312Z,101636.11
2019-03-24T11:22:12.962Z,101638.53
2019-03-24T11:24:45.808Z,101646.38
2019-03-24T11:27:18.577Z,101643.36
2019-03-24T11:29:51.421Z,101638.05
2019-03-24T11:32:24.245Z,101632.84
2019-03-24T11:34:57.121Z,101630.83
2019-03-24T11:37:29.836Z,101631.09
2019-03-24T11:40:02.588Z,101626.50
2019-03-24T11:42:35.385Z,101622.69
2019-03-24T11:45:08.949Z,101629.04
2019-03-24T11:47:41.678Z,101626.37
2019-03-24T11:50:15.212Z,101611.91
2019-03-24T11:52:52.917Z,101608.77
2019-03-24T11:55:27.309Z,101607.63
2019-03-24T11:58:06.065Z,101598.65
2019-03-24T12:00:47.570Z,101595.02
2019-03-24T12:03:25.419Z,101588.59
2019-03-24T12:06:13.627Z,101586.09
2019-03-24T12:08:38.851Z,101587.06
2019-03-24T12:11:11.773Z,101570.50
2019-03-24T12:13:44.657Z,101571.78
2019-03-24T12:16:17.433Z,101566.14
2019-03-24T12:18:54.954Z,101562.77
2019-03-24T12:21:27.525Z,101554.84
2019-03-24T12:24:00.440Z,101549.42
2019-03-24T12:26:37.482Z,101550.38
2019-03-24T12:29:10.373Z,101550.44
2019-03-24T12:31:43.145Z,101541.47
2019-03-24T12:34:21.253Z,101544.77
2019-03-24T12:36:55.210Z,101541.13
2019-03-24T12:39:27.933Z,101531.64
2019-03-24T12:42:04.842Z,101521.86
2019-03-24T12:44:37.913Z,101517.78
2019-03-24T12:47:13.222Z,101510.94
2019-03-24T12:49:48.901Z,101511.83
2019-03-24T12:52:25.222Z,101505.81
2019-03-24T12:55:01.274Z,101500.38
2019-03-24T12:57:38.081Z,101497.21
2019-03-24T13:00:13.304Z,101495.36
2019-03-24T13:02:47.268Z,101495.36
2019-03-24T13:05:20.116Z,101492.42
2019-03-24T13:07:54.536Z,101488.17
2019-03-24T13:10:27.549Z,101491.94
2019-03-24T13:13:00.446Z,101491.48
2019-03-24T13:15:33.384Z,101487.02
2019-03-24T13:18:06.306Z,101476.84
2019-03-24T13:20:41.251Z,101474.47
2019-03-24T13:23:14.057Z,101469.20
2019-03-24T13:25:50.671Z,101475.48
2019-03-24T13:28:23.760Z,101456.64
2019-03-24T13:30:56.779Z,101452.36
2019-03-24T13:33:32.060Z,101444.84
2019-03-24T13:36:10.100Z,101437.98
2019-03-24T13:38:42.848Z,101432.84
2019-03-24T13:41:15.772Z,101438.03
2019-03-24T13:43:48.834Z,101441.44
2019-03-24T13:46:21.671Z,101446.20
2019-03-24T13:48:55.170Z,101436.66
2019-03-24T13:51:28.024Z,101434.88
2019-03-24T13:54:02.195Z,101432.70
2019-03-24T13:56:35.099Z,101427.36
2019-03-24T13:59:08.292Z,101416.87
2019-03-24T14:01:41.061Z,101417.73
2019-03-24T14:04:18.038Z,101416.36
2019-03-24T14:06:50.828Z,101414.30
2019-03-24T14:09:23.478Z,101405.92
2019-03-24T14:11:56.488Z,101401.12
2019-03-24T14:14:29.184Z,101392.60
2019-03-24T14:17:03.297Z,101392.64
2019-03-24T14:19:36.139Z,101391.75
2019-03-24T14:22:08.996Z,101387.34
2019-03-24T14:24:41.838Z,101392.47
2019-03-24T14:27:14.640Z,101386.97
2019-03-24T14:29:47.702Z,101384.91
2019-03-24T14:32:20.589Z,101380.73
2019-03-24T14:34:53.580Z,101375.64
2019-03-24T14:37:27.698Z,101377.23
2019-03-24T14:40:00.924Z,101368.98
2019-03-24T14:42:34.210Z,101372.13
2019-03-24T14:45:08.062Z,101363.72
2019-03-24T14:48:13.148Z,101358.17
2019-03-24T14:50:54.448Z,101356.77
2019-03-24T14:53:23.470Z,101345.34
2019-03-24T14:55:58.372Z,101342.13
2019-03-24T14:58:31.260Z,101345.73
2019-03-24T15:01:04.000Z,101341.17
2019-03-24T15:03:36.905Z,101342.20
2019-03-24T15:06:09.614Z,101335.05
2019-03-24T15:08:44.171Z,101332.14
2019-03-24T15:11:18.999Z,101324.92
2019-03-24T15:14:08.598Z,101320.55
2019-03-24T15:20:49.449Z,101314.05
2019-03-24T16:07:34.391Z,101289.95
2019-03-24T16:10:34.722Z,101289.21
2019-03-24T16:12:56.095Z,101286.73
2019-03-24T16:16:15.829Z,101286.77
2019-03-24T16:18:57.340Z,101291.17
2019-03-24T16:22:06.043Z,101287.95
2019-03-24T16:24:28.368Z,101283.08
2019-03-24T16:27:14.154Z,101284.28
2019-03-24T16:33:02.788Z,101279.67
2019-03-24T16:36:21.435Z,101271.80
2019-03-24T18:30:16.457Z,101213.85
2019-03-24T18:32:50.907Z,101219.67
2019-03-24T18:35:24.082Z,101211.84
2019-03-24T18:37:57.328Z,101214.99
2019-03-24T18:40:32.211Z,101219.00
2019-03-24T18:43:05.208Z,101218.95
2019-03-24T18:45:56.667Z,101217.14
2019-03-24T18:48:33.851Z,101215.82
2019-03-24T18:51:13.721Z,101220.66
2019-03-24T18:53:46.639Z,101218.91
2019-03-24T18:56:23.198Z,101215.38
2019-03-24T18:58:56.244Z,101218.02
2019-03-24T19:01:29.311Z,101216.27
2019-03-24T19:04:02.549Z,101215.92
2019-03-24T19:06:36.386Z,101220.27
2019-03-24T19:09:11.014Z,101225.95
2019-03-24T19:11:43.878Z,101229.08
2019-03-24T19:14:16.641Z,101224.30
2019-03-24T19:16:49.354Z,101218.66
2019-03-24T19:19:22.088Z,101219.98
2019-03-24T19:21:54.869Z,101220.02
2019-03-24T19:24:27.751Z,101221.35
2019-03-24T19:27:03.781Z,101216.15
2019-03-24T19:29:36.620Z,101206.53
2019-03-24T19:32:09.674Z,101214.51
2019-03-24T19:34:44.675Z,101208.32
2019-03-24T19:37:17.521Z,101202.63
2019-03-24T19:39:50.292Z,101201.78
2019-03-24T19:42:23.266Z,101201.34
2019-03-24T19:44:56.153Z,101197.45
2019-03-24T19:47:28.991Z,101202.67
2019-03-24T19:50:02.034Z,101200.88
2019-03-24T19:52:44.367Z,101182.81
2019-03-24T19:55:12.471Z,101182.00
2019-03-24T19:57:47.358Z,101186.39
2019-03-24T20:00:19.837Z,101189.06
2019-03-24T20:02:52.649Z,101187.36
2019-03-24T20:05:26.972Z,101183.81
2019-03-24T20:08:00.227Z,101186.48
2019-03-24T20:10:32.983Z,101181.19
2019-03-24T20:13:05.985Z,101177.67
2019-03-24T20:15:38.697Z,101171.52
2019-03-24T20:18:11.467Z,101170.20
2019-03-24T20:20:44.302Z,101170.62
2019-03-24T20:23:17.037Z,101166.66
2019-03-24T20:25:49.926Z,101166.23
2019-03-24T20:28:22.635Z,101160.44
2019-03-24T20:30:55.349Z,101157.78
2019-03-24T20:33:28.174Z,101152.04
2019-03-24T20:36:01.729Z,101150.70
2019-03-24T20:38:34.557Z,101152.03
2019-03-24T20:41:07.325Z,101150.73
2019-03-24T20:43:40.170Z,101147.61
2019-03-24T20:46:12.869Z,101139.69
2019-03-24T20:48:45.698Z,101143.19
2019-03-24T20:51:18.591Z,101146.23
2019-03-24T20:53:51.356Z,101142.69
2019-03-24T20:56:24.149Z,101143.05
2019-03-24T20:58:57.035Z,101137.31
2019-03-24T21:01:29.899Z,101126.32
2019-03-24T21:04:02.776Z,101132.92
2019-03-24T21:06:35.625Z,101122.29
2019-03-24T21:09:10.821Z,101120.95
2019-03-24T21:11:44.033Z,101124.48
2019-03-24T21:14:16.875Z,101120.53
2019-03-24T21:16:49.605Z,101115.21
2019-03-24T21:19:22.945Z,101123.94
2019-03-24T21:21:55.631Z,101124.34
2019-03-24T21:24:28.432Z,101118.67
2019-03-24T21:27:01.165Z,101121.41
2019-03-24T21:29:34.086Z,101116.13
2019-03-24T21:32:06.780Z,101113.91
2019-03-24T21:34:39.564Z,101114.63
2019-03-24T21:37:12.280Z,101108.47
2019-03-24T21:39:45.096Z,101107.53
2019-03-24T21:42:17.799Z,101104.42
2019-03-24T21:44:51.775Z,101101.80
2019-03-24T21:47:24.462Z,101098.27
2019-03-24T21:49:57.189Z,101097.81
2019-03-24T21:52:29.921Z,101099.34
2019-03-24T21:55:02.602Z,101096.03
2019-03-24T21:57:35.240Z,101102.59
2019-03-24T22:00:10.479Z,101101.26
2019-03-24T22:02:43.209Z,101093.38
2019-03-24T22:05:15.904Z,101092.86
2019-03-24T22:07:48.638Z,101093.62
2019-03-24T22:10:21.420Z,101089.00
2019-03-24T22:12:54.112Z,101093.83
2019-03-24T22:15:26.832Z,101093.25
2019-03-24T22:17:59.585Z,101091.47
2019-03-24T22:20:32.324Z,101082.09
2019-03-24T22:23:05.054Z,101085.47
2019-03-24T22:25:37.694Z,101087.13
2019-03-24T22:28:10.375Z,101087.20
2019-03-24T22:30:43.144Z,101088.30
2019-03-24T22:33:15.876Z,101092.99
2019-03-24T22:35:48.541Z,101089.84
2019-03-24T22:38:21.336Z,101088.93
2019-03-24T22:40:55.582Z,101086.71
2019-03-24T22:43:28.311Z,101085.00
2019-03-24T22:46:01.041Z,101086.58
2019-03-24T22:48:33.830Z,101081.03
2019-03-24T22:51:06.692Z,101084.05
2019-03-24T22:53:39.492Z,101086.59
2019-03-24T22:56:12.204Z,101089.03
2019-03-24T22:58:44.972Z,101080.20
2019-03-24T23:01:18.996Z,101077.90
2019-03-24T23:03:51.924Z,101069.88
2019-03-24T23:06:24.684Z,101070.56
2019-03-24T23:08:57.513Z,101064.72
2019-03-24T23:11:30.278Z,101055.39
2019-03-24T23:14:03.068Z,101054.81
2019-03-24T23:16:35.947Z,101053.84
2019-03-24T23:19:09.649Z,101056.00
2019-03-24T23:21:44.063Z,101050.28
2019-03-24T23:24:16.821Z,101045.38
2019-03-24T23:26:49.597Z,101043.49
2019-03-24T23:29:22.368Z,101038.66
2019-03-24T23:31:55.279Z,101041.08
2019-03-24T23:34:28.019Z,101037.94
2019-03-24T23:37:00.703Z,101032.67
2019-03-24T23:39:33.453Z,101022.27
2019-03-24T23:42:06.408Z,101013.47
2019-03-24T23:44:39.053Z,101017.65
2019-03-24T23:47:11.903Z,101020.27
2019-03-24T23:49:44.659Z,101019.94
2019-03-24T23:52:17.459Z,101011.25
2019-03-24T23:54:50.171Z,101013.86
2019-03-24T23:57:22.855Z,101003.41
2019-03-24T23:59:55.605Z,101002.92
